createdAt,value
2023-05-03T00:01:48.679Z,10.19
2023-05-03T00:04:17.862Z,10.15
2023-05-03T00:06:46.280Z,10.45
2023-05-03T00:09:14.658Z,10.41
2023-05-03T00:11:43.223Z,10.64
2023-05-03T00:14:11.451Z,10.83
2023-05-03T00:16:39.750Z,10.65
2023-05-03T00:19:24.232Z,10.29
2023-05-03T00:21:56.661Z,10.47
2023-05-03T00:24:27.006Z,10.35
2023-05-03T00:26:55.294Z,10.27
2023-05-03T00:29:23.552Z,10.32
2023-05-03T00:31:52.115Z,10.54
2023-05-03T00:34:21.706Z,9.88
2023-05-03T00:36:50.259Z,10.39
2023-05-03T00:39:18.797Z,10.07
2023-05-03T00:41:47.057Z,10.12
2023-05-03T00:44:15.511Z,10.11
2023-05-03T00:46:43.894Z,10.14
2023-05-03T00:49:12.553Z,9.87
2023-05-03T00:51:43.284Z,10.01
2023-05-03T00:54:12.447Z,9.49
2023-05-03T00:56:51.126Z,9.66
2023-05-03T00:59:22.236Z,9.43
2023-05-03T01:01:51.855Z,9.50
2023-05-03T01:04:21.501Z,9.50
2023-05-03T01:07:00.623Z,9.26
2023-05-03T01:09:34.901Z,9.49
2023-05-03T01:12:16.883Z,9.67
2023-05-03T01:14:53.008Z,9.52
2023-05-03T01:17:32.352Z,9.61
2023-05-03T01:20:08.600Z,9.54
2023-05-03T01:22:47.854Z,9.48
2023-05-03T01:25:17.712Z,9.71
2023-05-03T01:27:45.974Z,9.46
2023-05-03T01:30:14.929Z,9.55
2023-05-03T01:32:51.390Z,9.40
2023-05-03T01:35:27.943Z,9.24
2023-05-03T01:37:57.776Z,9.27
2023-05-03T01:40:29.258Z,9.26
2023-05-03T01:43:03.201Z,9.32
2023-05-03T01:45:31.884Z,9.18
2023-05-03T01:48:00.669Z,9.07
2023-05-03T01:50:28.953Z,9.21
2023-05-03T01:52:57.223Z,9.30
2023-05-03T01:55:26.864Z,9.25
2023-05-03T01:57:55.110Z,9.02
2023-05-03T02:00:23.807Z,8.82
2023-05-03T02:02:52.145Z,8.74
2023-05-03T02:05:22.650Z,8.73
2023-05-03T02:07:51.297Z,8.70
2023-05-03T02:10:19.794Z,8.41
2023-05-03T02:12:49.826Z,8.57
2023-05-03T02:15:19.960Z,8.61
2023-05-03T02:17:49.522Z,8.60
2023-05-03T02:20:18.358Z,8.63
2023-05-03T02:22:48.746Z,8.56
2023-05-03T02:25:17.045Z,8.32
2023-05-03T02:27:46.569Z,8.21
2023-05-03T02:30:16.581Z,8.23
2023-05-03T02:32:45.371Z,8.34
2023-05-03T02:35:13.961Z,7.97
2023-05-03T02:37:42.268Z,8.12
2023-05-03T02:40:13.952Z,7.98
2023-05-03T02:42:44.226Z,7.79
2023-05-03T02:45:16.266Z,7.65
2023-05-03T02:47:44.548Z,7.73
2023-05-03T02:50:13.124Z,7.61
2023-05-03T02:52:42.654Z,7.83
2023-05-03T02:55:11.029Z,7.45
2023-05-03T02:57:42.597Z,7.54
2023-05-03T03:00:18.298Z,7.51
2023-05-03T03:02:46.633Z,7.70
2023-05-03T03:05:15.168Z,7.63
2023-05-03T03:07:48.129Z,7.49
2023-05-03T03:10:16.617Z,7.34
2023-05-03T03:12:45.217Z,7.14
2023-05-03T03:15:24.126Z,7.28
2023-05-03T03:17:57.615Z,7.35
2023-05-03T03:20:26.898Z,7.36
2023-05-03T03:22:55.546Z,7.25
2023-05-03T03:25:24.107Z,6.97
2023-05-03T03:27:53.945Z,7.01
2023-05-03T03:30:22.325Z,6.97
2023-05-03T03:33:04.179Z,6.87
2023-05-03T03:35:39.616Z,6.93
2023-05-03T03:38:08.507Z,6.86
2023-05-03T03:40:41.289Z,6.86
2023-05-03T03:43:10.107Z,6.70
2023-05-03T03:45:39.073Z,6.91
2023-05-03T03:48:08.915Z,7.00
2023-05-03T03:50:38.744Z,7.12
2023-05-03T03:53:09.167Z,6.94
2023-05-03T03:55:37.550Z,6.88
2023-05-03T03:58:06.880Z,6.92
2023-05-03T04:00:36.320Z,7.01
2023-05-03T04:03:12.907Z,6.74
2023-05-03T04:05:41.583Z,7.21
2023-05-03T04:08:11.119Z,7.16
2023-05-03T04:10:40.734Z,7.01
2023-05-03T04:13:09.448Z,6.94
2023-05-03T04:15:38.229Z,6.92
2023-05-03T04:18:07.501Z,7.13
2023-05-03T04:20:40.004Z,7.17
2023-05-03T04:23:10.859Z,6.96
2023-05-03T04:25:46.481Z,6.91
2023-05-03T04:28:16.093Z,6.85
2023-05-03T04:30:48.365Z,6.79
2023-05-03T04:33:22.500Z,6.82
2023-05-03T04:35:56.024Z,7.20
2023-05-03T04:38:24.493Z,7.20
2023-05-03T04:40:53.317Z,7.14
2023-05-03T04:43:21.892Z,6.93
2023-05-03T04:45:52.991Z,7.31
2023-05-03T04:48:24.701Z,7.27
2023-05-03T04:50:53.185Z,7.32
2023-05-03T04:53:26.084Z,7.35
2023-05-03T04:56:03.512Z,7.68
2023-05-03T04:58:34.606Z,7.95
2023-05-03T05:01:03.459Z,8.09
2023-05-03T05:03:32.591Z,8.50
2023-05-03T05:06:06.960Z,8.44
2023-05-03T05:08:37.458Z,8.02
2023-05-03T05:11:09.826Z,7.94
2023-05-03T05:13:40.873Z,7.89
2023-05-03T05:16:09.295Z,8.43
2023-05-03T05:18:38.824Z,8.45
2023-05-03T05:21:10.206Z,8.21
2023-05-03T05:23:41.601Z,8.17
2023-05-03T05:26:10.085Z,8.15
2023-05-03T05:28:42.893Z,8.12
2023-05-03T05:31:11.557Z,8.15
2023-05-03T05:33:40.585Z,8.21
2023-05-03T05:36:10.193Z,8.49
2023-05-03T05:38:39.463Z,8.42
2023-05-03T05:41:09.908Z,8.91
2023-05-03T05:43:39.700Z,11.13
2023-05-03T05:46:08.509Z,12.19
2023-05-03T05:48:37.269Z,11.44
2023-05-03T05:51:06.155Z,12.16
2023-05-03T05:53:34.818Z,12.10
2023-05-03T05:56:06.109Z,12.00
2023-05-03T05:58:38.453Z,12.70
2023-05-03T06:01:09.564Z,12.39
2023-05-03T06:03:39.625Z,12.53
2023-05-03T06:06:09.819Z,12.54
2023-05-03T06:08:39.774Z,11.95
2023-05-03T06:11:08.203Z,13.32
2023-05-03T06:13:40.659Z,12.83
2023-05-03T06:16:09.880Z,13.17
2023-05-03T06:18:39.076Z,14.23
2023-05-03T06:21:09.741Z,13.34
2023-05-03T06:23:39.641Z,10.97
2023-05-03T06:26:09.332Z,10.48
2023-05-03T06:28:38.978Z,10.57
2023-05-03T06:31:07.736Z,10.75
2023-05-03T06:33:36.168Z,10.55
2023-05-03T06:36:04.880Z,10.78
2023-05-03T06:38:33.256Z,10.46
2023-05-03T06:41:01.717Z,10.32
2023-05-03T06:43:30.297Z,10.37
2023-05-03T06:46:04.939Z,10.95
2023-05-03T06:48:33.374Z,10.71
2023-05-03T06:51:01.856Z,10.18
2023-05-03T06:53:31.021Z,11.47
2023-05-03T06:55:59.554Z,10.91
2023-05-03T06:58:28.001Z,10.79
2023-05-03T07:00:56.326Z,11.47
2023-05-03T07:03:26.370Z,11.05
2023-05-03T07:05:54.699Z,11.66
2023-05-03T07:08:22.997Z,12.08
2023-05-03T07:10:53.360Z,11.21
2023-05-03T07:13:21.667Z,11.99
2023-05-03T07:15:50.324Z,10.99
2023-05-03T07:18:18.654Z,10.90
2023-05-03T07:20:48.859Z,11.80
2023-05-03T07:23:17.538Z,11.71
2023-05-03T07:25:48.433Z,11.30
2023-05-03T07:28:17.683Z,12.32
2023-05-03T07:30:46.873Z,11.60
2023-05-03T07:33:15.465Z,11.66
2023-05-03T07:35:49.094Z,11.45
2023-05-03T07:38:17.654Z,12.11
2023-05-03T07:40:48.212Z,11.90
2023-05-03T07:43:18.526Z,11.74
2023-05-03T07:45:46.699Z,11.95
2023-05-03T07:48:14.768Z,12.05
2023-05-03T07:50:43.097Z,12.48
2023-05-03T07:53:13.596Z,12.12
2023-05-03T07:55:41.640Z,13.47
2023-05-03T07:58:09.695Z,13.05
2023-05-03T08:00:37.848Z,13.32
2023-05-03T08:03:06.585Z,14.04
2023-05-03T08:05:36.595Z,13.84
2023-05-03T08:08:05.609Z,13.99
2023-05-03T08:10:37.921Z,13.26
2023-05-03T08:13:07.109Z,13.08
2023-05-03T08:15:35.159Z,12.97
2023-05-03T08:18:03.290Z,13.59
2023-05-03T08:20:31.464Z,14.34
2023-05-03T08:22:59.562Z,13.93
2023-05-03T08:25:28.298Z,12.92
2023-05-03T08:27:57.768Z,14.25
2023-05-03T08:30:26.843Z,14.36
2023-05-03T08:32:57.969Z,14.02
2023-05-03T08:35:28.036Z,13.66
2023-05-03T08:37:56.191Z,14.67
2023-05-03T08:40:24.464Z,14.10
2023-05-03T08:42:52.900Z,14.20
2023-05-03T08:45:22.315Z,13.76
2023-05-03T08:47:55.316Z,13.85
2023-05-03T08:50:23.774Z,14.19
2023-05-03T08:52:52.022Z,14.72
2023-05-03T08:55:20.133Z,14.56
2023-05-03T08:57:48.125Z,14.92
2023-05-03T09:00:18.507Z,14.00
2023-05-03T09:02:50.243Z,14.17
2023-05-03T09:05:35.074Z,15.11
2023-05-03T09:08:03.890Z,14.58
2023-05-03T09:10:32.073Z,14.27
2023-05-03T09:13:01.128Z,14.05
2023-05-03T09:15:30.439Z,14.40
2023-05-03T09:18:17.268Z,14.66
2023-05-03T09:20:51.784Z,14.76
2023-05-03T09:23:29.633Z,14.99
2023-05-03T09:26:00.271Z,15.23
2023-05-03T09:28:28.366Z,15.91
2023-05-03T09:31:05.408Z,15.65
2023-05-03T09:33:34.337Z,16.04
2023-05-03T09:36:04.781Z,15.09
2023-05-03T09:38:33.513Z,14.46
2023-05-03T09:41:02.558Z,14.96
2023-05-03T09:43:30.684Z,14.76
2023-05-03T09:46:09.128Z,15.50
2023-05-03T09:48:37.739Z,14.46
2023-05-03T09:51:07.886Z,14.72
2023-05-03T09:53:36.307Z,15.88
2023-05-03T09:56:05.119Z,16.40
2023-05-03T09:58:35.002Z,16.33
2023-05-03T10:01:03.467Z,16.56
2023-05-03T10:03:35.546Z,16.38
2023-05-03T10:06:04.744Z,16.24
2023-05-03T10:08:35.309Z,15.78
2023-05-03T10:11:04.808Z,16.59
2023-05-03T10:13:32.936Z,15.85
2023-05-03T10:16:02.446Z,16.02
2023-05-03T10:18:33.092Z,15.28
2023-05-03T10:21:03.407Z,15.46
2023-05-03T10:23:31.449Z,15.60
2023-05-03T10:26:16.411Z,16.79
2023-05-03T10:28:47.286Z,16.56
2023-05-03T10:31:39.394Z,16.83
2023-05-03T10:34:20.310Z,16.50
2023-05-03T10:36:50.455Z,16.90
2023-05-03T10:39:19.588Z,17.55
2023-05-03T10:41:58.414Z,16.19
2023-05-03T10:44:26.967Z,17.02
2023-05-03T10:46:55.427Z,18.04
2023-05-03T10:49:24.343Z,18.13
2023-05-03T10:51:52.697Z,18.19
2023-05-03T10:54:23.355Z,17.53
2023-05-03T10:56:52.583Z,17.08
2023-05-03T10:59:22.027Z,16.50
2023-05-03T11:01:52.118Z,16.13
2023-05-03T11:04:25.624Z,16.36
2023-05-03T11:06:56.778Z,16.64
2023-05-03T11:09:31.128Z,16.83
2023-05-03T11:11:59.451Z,17.16
2023-05-03T11:14:31.211Z,16.97
2023-05-03T11:16:59.701Z,17.35
2023-05-03T11:19:27.888Z,17.08
2023-05-03T11:21:56.182Z,17.62
2023-05-03T11:24:24.254Z,17.44
2023-05-03T11:26:52.290Z,18.62
2023-05-03T11:29:22.716Z,17.97
2023-05-03T11:31:53.270Z,19.24
2023-05-03T11:34:21.485Z,17.09
2023-05-03T11:36:51.070Z,17.49
2023-05-03T11:39:20.845Z,17.71
2023-05-03T11:42:04.283Z,17.21
2023-05-03T11:44:32.457Z,17.59
2023-05-03T11:47:02.313Z,17.32
2023-05-03T11:49:30.697Z,17.15
2023-05-03T11:51:58.809Z,17.45
2023-05-03T11:54:27.995Z,17.08
2023-05-03T11:56:57.561Z,17.76
2023-05-03T11:59:34.881Z,19.03
2023-05-03T12:02:05.497Z,17.62
2023-05-03T12:04:34.299Z,19.07
2023-05-03T12:07:03.633Z,18.52
2023-05-03T12:09:35.924Z,19.06
2023-05-03T12:12:06.265Z,19.33
2023-05-03T12:14:54.966Z,17.81
2023-05-03T12:17:37.038Z,17.55
2023-05-03T12:22:53.032Z,17.25
2023-05-03T12:25:26.212Z,17.27
2023-05-03T12:28:12.350Z,17.81
2023-05-03T12:30:45.912Z,17.74
2023-05-03T12:33:21.741Z,18.03
2023-05-03T12:35:53.291Z,17.87
2023-05-03T12:38:24.411Z,19.35
2023-05-03T12:40:54.100Z,19.15
2023-05-03T12:43:22.540Z,18.87
2023-05-03T12:46:01.998Z,18.91
2023-05-03T12:48:40.014Z,17.92
2023-05-03T12:53:42.971Z,17.79
2023-05-03T12:56:14.096Z,17.57
2023-05-03T12:58:58.405Z,17.91
2023-05-03T13:06:42.222Z,18.07
2023-05-03T13:09:19.224Z,18.29
2023-05-03T13:11:51.098Z,19.50
2023-05-03T13:14:19.406Z,19.25
2023-05-03T13:16:47.576Z,18.78
2023-05-03T13:19:17.252Z,19.45
2023-05-03T13:21:47.958Z,18.44
2023-05-03T13:24:16.278Z,18.41
2023-05-03T13:26:46.409Z,18.43
2023-05-03T13:29:14.451Z,18.41
2023-05-03T13:31:42.798Z,18.29
2023-05-03T13:34:10.856Z,18.76
2023-05-03T13:36:40.355Z,19.26
2023-05-03T13:39:09.848Z,19.32
2023-05-03T13:41:40.644Z,18.83
2023-05-03T13:44:09.138Z,18.79
2023-05-03T13:46:37.962Z,18.71
2023-05-03T13:49:07.360Z,18.93
2023-05-03T13:51:36.060Z,18.76
2023-05-03T13:54:06.024Z,19.26
2023-05-03T13:56:35.147Z,18.77
2023-05-03T13:59:03.303Z,19.02
2023-05-03T14:01:38.929Z,18.72
2023-05-03T14:04:10.080Z,19.25
2023-05-03T14:06:41.343Z,18.58
2023-05-03T14:09:11.814Z,18.63
2023-05-03T14:11:40.049Z,19.02
2023-05-03T14:14:08.475Z,18.86
2023-05-03T14:16:41.695Z,18.88
2023-05-03T14:19:11.488Z,18.58
2023-05-03T14:21:39.894Z,18.85
2023-05-03T14:24:07.936Z,19.25
2023-05-03T14:26:37.691Z,18.32
2023-05-03T14:29:06.279Z,18.15
2023-05-03T14:31:34.460Z,18.41
2023-05-03T14:34:02.652Z,18.81
2023-05-03T14:36:35.840Z,19.13
2023-05-03T14:39:04.317Z,19.64
2023-05-03T14:41:33.272Z,19.44
2023-05-03T14:44:06.758Z,19.70
2023-05-03T14:46:35.166Z,19.48
2023-05-03T14:49:03.275Z,19.09
2023-05-03T14:51:32.402Z,19.64
2023-05-03T14:54:00.645Z,19.21
2023-05-03T14:56:31.582Z,19.47
2023-05-03T14:59:00.245Z,19.95
2023-05-03T15:01:29.972Z,19.27
2023-05-03T15:03:58.243Z,19.79
2023-05-03T15:06:28.545Z,18.99
2023-05-03T15:08:56.794Z,19.06
2023-05-03T15:11:27.410Z,19.09
2023-05-03T15:13:57.773Z,19.26
2023-05-03T15:16:26.291Z,19.34
2023-05-03T15:18:56.082Z,19.47
2023-05-03T15:21:24.295Z,19.62
2023-05-03T15:23:53.870Z,20.43
2023-05-03T15:26:22.255Z,19.78
2023-05-03T15:28:50.244Z,19.02
2023-05-03T15:31:18.401Z,19.58
2023-05-03T15:33:46.563Z,19.34
2023-05-03T15:36:16.525Z,18.92
2023-05-03T15:38:45.039Z,19.35
2023-05-03T15:41:13.290Z,19.79
2023-05-03T15:43:41.612Z,19.55
2023-05-03T15:46:10.071Z,19.04
2023-05-03T15:48:41.141Z,18.86
2023-05-03T15:51:09.515Z,18.76
2023-05-03T15:53:40.885Z,-143.11
2023-05-03T15:56:09.429Z,-143.11
2023-05-03T15:58:39.999Z,-143.11
2023-05-03T16:01:08.452Z,-143.11
2023-05-03T16:03:36.751Z,-143.11
2023-05-03T16:06:08.176Z,-143.11
2023-05-03T16:08:36.763Z,-143.11
2023-05-03T16:11:06.836Z,-143.11
2023-05-03T16:13:38.336Z,-143.11
2023-05-03T16:16:07.110Z,-143.11
2023-05-03T16:18:35.200Z,-143.11
2023-05-03T16:21:03.381Z,-143.11
2023-05-03T16:23:31.432Z,-143.11
2023-05-03T16:25:59.567Z,-143.11
2023-05-03T16:28:28.987Z,-143.11
2023-05-03T16:30:57.001Z,-143.11
2023-05-03T16:33:25.460Z,-143.11
2023-05-03T16:35:53.536Z,-143.11
2023-05-03T16:38:21.585Z,-143.11
2023-05-03T16:40:49.752Z,-143.11
2023-05-03T16:43:18.385Z,-143.11
2023-05-03T16:45:55.426Z,-143.11
2023-05-03T16:48:23.859Z,-143.11
2023-05-03T16:50:51.854Z,-143.11
2023-05-03T16:53:20.585Z,-143.11
2023-05-03T16:55:48.794Z,-143.11
2023-05-03T16:58:19.202Z,-143.11
2023-05-03T17:00:51.150Z,-143.11
2023-05-03T17:03:19.431Z,-143.11
2023-05-03T17:05:47.648Z,-143.11
2023-05-03T17:08:15.669Z,-143.11
2023-05-03T17:10:45.247Z,-143.11
2023-05-03T17:13:13.563Z,-143.11
2023-05-03T17:15:41.715Z,-143.11
2023-05-03T17:18:11.754Z,-143.11
2023-05-03T17:20:42.927Z,-143.11
2023-05-03T17:23:11.188Z,-143.11
2023-05-03T17:25:44.747Z,-143.11
2023-05-03T17:28:15.381Z,-143.11
2023-05-03T17:30:43.437Z,-143.11
2023-05-03T17:33:12.981Z,-143.11
2023-05-03T17:35:41.146Z,-143.11
2023-05-03T17:38:09.261Z,-143.11
2023-05-03T17:40:40.919Z,-143.11
2023-05-03T17:43:08.909Z,-143.11
2023-05-03T17:45:37.550Z,-143.11
2023-05-03T17:48:05.882Z,-143.11
2023-05-03T17:50:35.791Z,-143.11
2023-05-03T17:53:03.972Z,-143.11
2023-05-03T17:55:34.777Z,-143.11
2023-05-03T17:58:03.173Z,-143.11
2023-05-03T18:00:31.266Z,-143.11
2023-05-03T18:02:59.359Z,-143.11
2023-05-03T18:05:35.273Z,-143.11
2023-05-03T18:08:04.743Z,-143.11
2023-05-03T18:10:32.741Z,-143.11
2023-05-03T18:13:00.896Z,-143.11
2023-05-03T18:15:29.055Z,-143.11
2023-05-03T18:17:59.692Z,-143.11
2023-05-03T18:20:28.362Z,-143.11
2023-05-03T18:22:58.767Z,-143.11
2023-05-03T18:25:28.344Z,-143.11
2023-05-03T18:27:58.612Z,-143.11
2023-05-03T18:30:28.075Z,-143.11
2023-05-03T18:32:56.248Z,-143.11
2023-05-03T18:35:24.688Z,-143.11
2023-05-03T18:37:53.327Z,-143.11
2023-05-03T18:40:21.514Z,-143.11
2023-05-03T18:42:53.552Z,-143.11
2023-05-03T18:45:21.613Z,-143.11
2023-05-03T18:47:49.794Z,-143.11
2023-05-03T18:50:17.882Z,-143.11
2023-05-03T18:52:45.883Z,-143.11
2023-05-03T18:55:13.999Z,-143.11
2023-05-03T18:57:42.541Z,-143.11
2023-05-03T19:00:13.428Z,-143.11
2023-05-03T19:02:41.764Z,-143.11
2023-05-03T19:05:13.519Z,-143.11
2023-05-03T19:07:43.359Z,-143.11
2023-05-03T19:10:11.679Z,-143.11
2023-05-03T19:12:40.778Z,-143.11
2023-05-03T19:15:09.365Z,-143.11
2023-05-03T19:17:40.421Z,-143.11
2023-05-03T19:20:10.050Z,-143.11
2023-05-03T19:22:38.266Z,-143.11
2023-05-03T19:25:07.157Z,-143.11
2023-05-03T19:27:35.204Z,-143.11
2023-05-03T19:30:03.868Z,-143.11
2023-05-03T19:32:35.162Z,-143.11
2023-05-03T19:35:08.268Z,-143.11
2023-05-03T19:37:38.702Z,-143.11
2023-05-03T19:40:07.394Z,-143.11
2023-05-03T19:42:35.692Z,-143.11
2023-05-03T19:45:06.397Z,-143.11
2023-05-03T19:47:36.654Z,-143.11
2023-05-03T19:50:07.506Z,-143.11
2023-05-03T19:52:35.726Z,-143.11
2023-05-03T19:55:07.108Z,-143.11
2023-05-03T19:57:37.889Z,-143.11
2023-05-03T20:00:07.122Z,-143.11
2023-05-03T20:02:36.666Z,-143.11
2023-05-03T20:05:06.913Z,-143.11
2023-05-03T20:07:35.354Z,-143.11
2023-05-03T20:10:03.774Z,-143.11
2023-05-03T20:12:32.895Z,-143.11
2023-05-03T20:15:26.821Z,-143.11
2023-05-03T20:17:54.962Z,-143.11
2023-05-03T20:20:27.037Z,-143.11
2023-05-03T20:22:55.857Z,-143.11
2023-05-03T20:25:25.626Z,-143.11
2023-05-03T20:27:53.775Z,-143.11
2023-05-03T20:30:22.154Z,-143.11
2023-05-03T20:32:50.300Z,-143.11
2023-05-03T20:35:20.399Z,-143.11
2023-05-03T20:37:49.888Z,-143.11
2023-05-03T20:40:17.970Z,-143.11
2023-05-03T20:42:46.112Z,-143.11
2023-05-03T20:45:14.981Z,-143.11
2023-05-03T20:47:43.012Z,-143.11
2023-05-03T20:50:11.798Z,-143.11
2023-05-03T20:52:39.862Z,-143.11
2023-05-03T20:55:10.002Z,-143.11
2023-05-03T20:57:40.656Z,-143.11
2023-05-03T21:00:09.230Z,-143.11
2023-05-03T21:02:37.327Z,-143.11
2023-05-03T21:05:06.424Z,-143.11
2023-05-03T21:07:34.458Z,-143.11
2023-05-03T21:10:02.680Z,-143.11
2023-05-03T21:12:32.426Z,-143.11
2023-05-03T21:15:00.537Z,-143.11
2023-05-03T21:17:28.732Z,-143.11
2023-05-03T21:19:59.426Z,-143.11
2023-05-03T21:22:27.787Z,-143.11
2023-05-03T21:24:55.799Z,-143.11
2023-05-03T21:27:33.868Z,-143.11
2023-05-03T21:30:03.638Z,-143.11
2023-05-03T21:32:33.232Z,-143.11
2023-05-03T21:35:01.321Z,-143.11
2023-05-03T21:37:29.284Z,-143.11
2023-05-03T21:40:02.147Z,-143.11
2023-05-03T21:42:31.036Z,-143.11
2023-05-03T21:45:02.828Z,-143.11
2023-05-03T21:47:31.143Z,-143.11
2023-05-03T21:49:59.181Z,-143.11
2023-05-03T21:52:27.228Z,-143.11
2023-05-03T21:54:55.293Z,-143.11
2023-05-03T21:57:23.321Z,-143.11
2023-05-03T22:02:37.644Z,11.40
2023-05-03T22:05:06.031Z,11.29
2023-05-03T22:07:34.209Z,11.17
2023-05-03T22:10:02.637Z,11.20
2023-05-03T22:12:30.925Z,11.34
2023-05-03T22:15:01.314Z,11.36
2023-05-03T22:17:29.304Z,11.39
2023-05-03T22:19:58.827Z,11.29
2023-05-03T22:22:26.900Z,10.90
2023-05-03T22:24:55.944Z,10.90
2023-05-03T22:27:24.067Z,10.81
2023-05-03T22:29:54.230Z,10.70
2023-05-03T22:32:22.364Z,10.64
2023-05-03T22:34:50.516Z,10.71
2023-05-03T22:37:19.847Z,10.57
2023-05-03T22:39:47.840Z,10.50
2023-05-03T22:42:16.045Z,10.47
2023-05-03T22:44:44.098Z,10.71
2023-05-03T22:47:12.206Z,10.90
2023-05-03T22:49:40.257Z,11.39
2023-05-03T22:52:09.027Z,11.59
2023-05-03T22:54:38.421Z,11.65
2023-05-03T22:57:06.434Z,11.70
2023-05-03T22:59:34.569Z,11.78
2023-05-03T23:02:02.696Z,11.66
2023-05-03T23:04:30.761Z,11.67
2023-05-03T23:07:00.820Z,11.61
2023-05-03T23:09:28.914Z,11.76
2023-05-03T23:11:58.813Z,11.72
2023-05-03T23:14:26.876Z,11.85
2023-05-03T23:16:58.087Z,11.77
2023-05-03T23:19:29.091Z,11.58
2023-05-03T23:21:57.046Z,11.69
2023-05-03T23:24:25.076Z,11.66
2023-05-03T23:26:53.054Z,11.64
2023-05-03T23:29:23.073Z,11.81
2023-05-03T23:31:51.714Z,11.63
2023-05-03T23:34:20.202Z,11.54
2023-05-03T23:36:51.004Z,10.46
2023-05-03T23:39:19.009Z,9.97
2023-05-03T23:41:47.029Z,10.15
2023-05-03T23:44:15.056Z,9.84
2023-05-03T23:46:44.546Z,9.83
2023-05-03T23:49:12.617Z,9.68
2023-05-03T23:51:40.671Z,9.89
2023-05-03T23:54:08.695Z,9.84
2023-05-03T23:56:36.685Z,10.12
2023-05-03T23:59:05.797Z,10.43
